Time;durP1;ratioP1;P1;durP2;ratioP2;P2;SDS_P1;SDS_P2;PMS_P1;PMS_P2;Temp;Humidity;BMP_temperature;BMP_pressure;BME280_temperature;BME280_humidity;BME280_pressure;Samples;Min_cycle;Max_cycle;Signal;HPM_P1;HPM_P2
2023/08/13 00:00:58;;;;;;;0.43;0.32;;;24.50;64.70;;;;;;6370229;27;20027;-51
2023/08/13 00:04:01;;;;;;;0.47;0.22;;;24.50;64.60;;;;;;6367998;27;20034;-52
2023/08/13 00:07:03;;;;;;;0.55;0.30;;;24.30;64.70;;;;;;6368790;27;20037;-53
2023/08/13 00:10:09;;;;;;;0.55;0.40;;;24.20;64.50;;;;;;6374593;27;20026;-49
2023/08/13 00:13:11;;;;;;;0.40;0.30;;;24.50;64.70;;;;;;6373550;27;20074;-50
2023/08/13 00:16:12;;;;;;;0.75;0.30;;;24.00;63.00;;;;;;6373967;27;20053;-51
2023/08/13 00:19:15;;;;;;;0.93;0.28;;;24.40;65.30;;;;;;6372736;27;20035;-49
2023/08/13 00:22:16;;;;;;;0.28;0.28;;;24.30;64.80;;;;;;6373831;27;20512;-49
2023/08/13 00:25:18;;;;;;;1.02;0.50;;;24.50;65.10;;;;;;6374608;27;20031;-53
2023/08/13 00:28:20;;;;;;;0.65;0.22;;;24.70;65.50;;;;;;6374461;27;20082;-51
2023/08/13 00:31:22;;;;;;;0.45;0.30;;;24.40;65.30;;;;;;6373312;27;20130;-51
2023/08/13 00:34:23;;;;;;;0.40;0.20;;;24.30;65.40;;;;;;6373331;27;20065;-51
2023/08/13 00:37:25;;;;;;;0.20;0.20;;;24.30;65.60;;;;;;6370956;27;20257;-52
2023/08/13 00:40:27;;;;;;;0.22;0.22;;;24.30;92.10;;;;;;6372695;27;20050;-51
2023/08/13 00:43:29;;;;;;;1.27;0.40;;;23.70;77.60;;;;;;6372342;27;20043;-53
2023/08/13 00:46:31;;;;;;;0.60;0.38;;;24.40;65.60;;;;;;6374625;27;20031;-51
2023/08/13 00:49:33;;;;;;;0.90;0.40;;;24.30;65.60;;;;;;6353561;27;20035;-50
2023/08/13 00:52:35;;;;;;;0.95;0.40;;;24.20;66.00;;;;;;6372447;27;20083;-50
2023/08/13 00:55:37;;;;;;;0.68;0.32;;;24.40;66.20;;;;;;6372353;27;20031;-53
2023/08/13 00:58:47;;;;;;;0.40;0.20;;;24.20;65.50;;;;;;6369815;27;20042;-52
2023/08/13 01:01:48;;;;;;;0.50;0.32;;;24.10;65.70;;;;;;6371783;27;20080;-51
2023/08/13 01:04:50;;;;;;;0.90;0.28;;;24.30;65.90;;;;;;6372841;27;20034;-50
2023/08/13 01:07:59;;;;;;;0.80;0.50;;;24.40;66.50;;;;;;6371069;27;20072;-51
2023/08/13 01:11:11;;;;;;;0.60;0.38;;;24.20;66.50;;;;;;6372888;27;20693;-52
2023/08/13 01:14:27;;;;;;;0.40;0.30;;;24.20;66.00;;;;;;6373324;27;20141;-52
2023/08/13 01:17:33;;;;;;;0.30;0.20;;;24.30;66.10;;;;;;6371893;27;20046;-51
2023/08/13 01:20:36;;;;;;;0.73;0.30;;;23.90;65.80;;;;;;6370571;27;20122;-51
2023/08/13 01:23:39;;;;;;;0.40;0.30;;;24.20;66.10;;;;;;6372449;27;20034;-50
2023/08/13 01:26:49;;;;;;;0.60;0.30;;;24.40;66.80;;;;;;6373773;27;20041;-50
2023/08/13 01:29:55;;;;;;;0.93;0.50;;;24.20;66.10;;;;;;6371662;27;20569;-49
2023/08/13 01:33:01;;;;;;;0.55;0.40;;;24.20;66.60;;;;;;6371904;27;20517;-51
2023/08/13 01:36:04;;;;;;;0.40;0.22;;;24.20;66.70;;;;;;6372804;27;20039;-53
2023/08/13 01:39:10;;;;;;;0.40;0.20;;;24.20;66.30;;;;;;6373170;27;20268;-51
2023/08/13 01:42:11;;;;;;;0.57;0.20;;;23.60;66.00;;;;;;6372306;27;20065;-51
2023/08/13 01:45:13;;;;;;;0.70;0.20;;;24.20;67.20;;;;;;6371597;27;20035;-52
2023/08/13 01:48:15;;;;;;;0.30;0.30;;;24.60;66.60;;;;;;6369981;27;20041;-51
2023/08/13 01:51:17;;;;;;;1.00;0.32;;;23.90;66.30;;;;;;6370930;27;20043;-50
2023/08/13 01:54:19;;;;;;;1.02;0.40;;;24.10;66.40;;;;;;6370584;27;20042;-51
2023/08/13 01:57:21;;;;;;;0.43;0.30;;;24.20;66.50;;;;;;6370293;27;20211;-50
2023/08/13 02:00:23;;;;;;;0.55;0.30;;;24.20;66.50;;;;;;6372818;27;20041;-54
2023/08/13 02:03:24;;;;;;;0.35;0.30;;;24.20;66.50;;;;;;6335739;27;20088;-56
2023/08/13 02:06:26;;;;;;;0.88;0.40;;;24.30;66.70;;;;;;6368210;27;20031;-53
2023/08/13 02:09:28;;;;;;;0.73;0.30;;;24.10;66.50;;;;;;6367995;27;20031;-54
2023/08/13 02:12:29;;;;;;;0.75;0.30;;;24.00;66.20;;;;;;6369374;27;20397;-54
2023/08/13 02:15:31;;;;;;;0.68;0.35;;;24.10;66.60;;;;;;6369788;27;20034;-54
2023/08/13 02:18:33;;;;;;;0.45;0.30;;;23.80;66.30;;;;;;6369483;27;20030;-54
2023/08/13 02:21:34;;;;;;;0.22;0.20;;;23.60;66.20;;;;;;6370159;27;20045;-54
2023/08/13 02:24:36;;;;;;;0.68;0.30;;;24.10;66.60;;;;;;6368170;27;20034;-54
2023/08/13 02:27:38;;;;;;;0.50;0.30;;;23.90;66.50;;;;;;6369461;27;20501;-53
2023/08/13 02:30:39;;;;;;;0.65;0.52;;;23.60;66.30;;;;;;6367305;27;20404;-53
2023/08/13 02:33:41;;;;;;;0.90;0.40;;;24.00;67.20;;;;;;6369278;27;20069;-51
2023/08/13 02:36:42;;;;;;;0.95;0.57;;;24.10;66.60;;;;;;6367891;27;20103;-53
2023/08/13 02:39:44;;;;;;;0.38;0.30;;;24.10;66.70;;;;;;6369032;27;20034;-54
2023/08/13 02:42:48;;;;;;;0.30;0.30;;;23.50;66.40;;;;;;6369347;27;20043;-54
2023/08/13 02:45:49;;;;;;;0.75;0.43;;;22.60;65.90;;;;;;6368555;27;20091;-53
2023/08/13 02:48:53;;;;;;;0.45;0.22;;;24.10;66.90;;;;;;6367773;27;20046;-53
2023/08/13 02:51:55;;;;;;;0.50;0.30;;;24.00;66.70;;;;;;6351428;27;20031;-53
2023/08/13 02:55:00;;;;;;;0.50;0.35;;;23.90;67.00;;;;;;6368120;27;20037;-54
2023/08/13 02:58:01;;;;;;;0.30;0.20;;;;;;;;;;6369267;27;20050;-53
2023/08/13 03:01:12;;;;;;;0.98;0.40;;;;;;;;;;6370263;27;20039;-54
2023/08/13 03:04:14;;;;;;;0.20;0.20;;;23.80;79.50;;;;;;6350443;27;20038;-53
2023/08/13 03:07:15;;;;;;;0.75;0.38;;;24.00;65.60;;;;;;6368323;27;20038;-54
2023/08/13 03:10:17;;;;;;;0.30;0.30;;;24.10;66.00;;;;;;6368613;27;20497;-52
2023/08/13 03:13:21;;;;;;;0.55;0.40;;;23.70;65.80;;;;;;6367016;27;20234;-50
2023/08/13 03:16:23;;;;;;;0.93;0.30;;;23.70;65.90;;;;;;6368706;27;20378;-54
2023/08/13 03:19:26;;;;;;;0.90;0.40;;;23.60;65.90;;;;;;6367966;27;20569;-51
2023/08/13 03:22:28;;;;;;;0.70;0.30;;;23.90;66.20;;;;;;6368958;27;20046;-52
2023/08/13 03:25:31;;;;;;;0.32;0.32;;;23.80;66.10;;;;;;6368611;27;20034;-51
2023/08/13 03:28:35;;;;;;;0.50;0.22;;;24.00;66.20;;;;;;6368251;27;20061;-53
2023/08/13 03:31:46;;;;;;;0.43;0.40;;;23.80;66.00;;;;;;6368299;27;20053;-54
2023/08/13 03:34:54;;;;;;;0.63;0.30;;;23.80;66.20;;;;;;6369229;27;20071;-53
2023/08/13 03:37:56;;;;;;;0.35;0.32;;;23.90;66.30;;;;;;6367730;27;20069;-54
2023/08/13 03:40:58;;;;;;;0.55;0.30;;;23.70;66.30;;;;;;6368196;27;20042;-50
2023/08/13 03:44:00;;;;;;;0.68;0.30;;;22.60;65.60;;;;;;6367995;27;20043;-53
2023/08/13 03:47:01;;;;;;;0.55;0.40;;;23.70;66.40;;;;;;6368484;27;20039;-54
2023/08/13 03:50:05;;;;;;;0.88;0.43;;;23.90;66.50;;;;;;6371148;27;20034;-52
2023/08/13 03:53:06;;;;;;;0.68;0.30;;;23.80;66.60;;;;;;6369022;27;20035;-52
2023/08/13 03:56:09;;;;;;;0.43;0.20;;;23.80;66.50;;;;;;6368578;27;20509;-50
2023/08/13 03:59:12;;;;;;;0.77;0.40;;;23.80;66.60;;;;;;6370913;27;20269;-53
2023/08/13 04:02:14;;;;;;;0.38;0.30;;;23.80;66.70;;;;;;6370890;27;20106;-54
2023/08/13 04:05:16;;;;;;;0.40;0.30;;;23.50;66.60;;;;;;6368910;27;20034;-53
2023/08/13 04:08:19;;;;;;;1.17;0.60;;;23.70;67.20;;;;;;6367435;27;20062;-54
2023/08/13 04:11:21;;;;;;;0.52;0.30;;;23.90;66.90;;;;;;6370324;27;20448;-52
2023/08/13 04:14:22;;;;;;;0.45;0.28;;;23.40;66.90;;;;;;6369884;27;20042;-53
2023/08/13 04:17:24;;;;;;;0.90;0.40;;;23.60;66.80;;;;;;6371464;27;20039;-54
2023/08/13 04:20:26;;;;;;;1.27;0.35;;;23.30;66.70;;;;;;6370569;27;20114;-54
2023/08/13 04:23:27;;;;;;;0.77;0.35;;;23.40;67.20;;;;;;6369784;27;20109;-52
2023/08/13 04:26:32;;;;;;;0.82;0.32;;;23.60;66.90;;;;;;6368666;27;20062;-52
2023/08/13 04:29:36;;;;;;;0.40;0.20;;;23.80;67.10;;;;;;6369998;27;20299;-51
2023/08/13 04:32:39;;;;;;;0.85;0.30;;;23.70;67.40;;;;;;6370928;27;20039;-52
2023/08/13 04:35:43;;;;;;;0.65;0.40;;;23.70;67.20;;;;;;6367526;27;20030;-51
2023/08/13 04:38:46;;;;;;;0.77;0.32;;;23.30;66.80;;;;;;6367789;27;20126;-51
2023/08/13 04:41:48;;;;;;;;;;;23.30;67.10;;;;;;6369336;27;20236;-52
2023/08/13 04:44:50;;;;;;;0.35;0.20;;;23.90;68.00;;;;;;6369874;27;20019;-53
2023/08/13 04:47:52;;;;;;;0.30;0.20;;;23.60;67.60;;;;;;6368498;27;20181;-54
2023/08/13 04:50:54;;;;;;;0.63;0.40;;;23.70;67.80;;;;;;6351504;27;20091;-53
2023/08/13 04:53:55;;;;;;;0.68;0.40;;;23.70;67.50;;;;;;6370409;27;20047;-49
2023/08/13 04:57:03;;;;;;;0.70;0.52;;;22.20;66.70;;;;;;6374730;27;20083;-51
2023/08/13 05:00:09;;;;;;;0.57;0.30;;;23.60;67.50;;;;;;6374458;27;20053;-50
2023/08/13 05:03:14;;;;;;;1.05;0.32;;;23.60;67.40;;;;;;6362019;27;20034;-53
2023/08/13 05:06:17;;;;;;;1.02;0.43;;;23.70;67.60;;;;;;6354739;27;20058;-53
2023/08/13 05:09:19;;;;;;;0.88;0.32;;;23.50;67.50;;;;;;6359874;27;20073;-52
2023/08/13 05:12:22;;;;;;;0.88;0.40;;;23.50;67.80;;;;;;6360511;27;20041;-52
2023/08/13 05:15:27;;;;;;;1.08;0.50;;;23.60;67.70;;;;;;6358820;27;20067;-51
2023/08/13 05:18:29;;;;;;;0.65;0.30;;;23.10;67.70;;;;;;6362403;27;20045;-52
2023/08/13 05:21:30;;;;;;;0.68;0.30;;;23.60;67.70;;;;;;6360230;27;20080;-54
2023/08/13 05:24:32;;;;;;;0.43;0.30;;;23.10;68.10;;;;;;6359595;27;20028;-54
2023/08/13 05:27:34;;;;;;;0.65;0.32;;;23.50;67.80;;;;;;6360169;27;20569;-54
2023/08/13 05:30:38;;;;;;;1.30;0.30;;;23.20;67.70;;;;;;6361040;27;20031;-53
2023/08/13 05:33:43;;;;;;;0.43;0.32;;;23.60;68.00;;;;;;6341406;27;20099;-53
2023/08/13 05:36:47;;;;;;;0.95;0.50;;;23.60;66.30;;;;;;6358546;27;20122;-51
2023/08/13 05:39:51;;;;;;;0.73;0.32;;;23.70;68.60;;;;;;6357744;27;20030;-53
2023/08/13 05:42:55;;;;;;;0.82;0.40;;;23.30;68.20;;;;;;6360443;27;20512;-51
2023/08/13 05:45:56;;;;;;;0.57;0.32;;;23.60;67.80;;;;;;6357598;27;20047;-54
2023/08/13 05:49:00;;;;;;;0.55;0.20;;;23.60;68.30;;;;;;6363107;27;20079;-53
2023/08/13 05:52:05;;;;;;;0.80;0.28;;;23.50;68.20;;;;;;6360479;27;20064;-55
2023/08/13 05:55:07;;;;;;;0.52;0.35;;;23.60;68.90;;;;;;6359621;27;20086;-53
2023/08/13 05:58:11;;;;;;;0.60;0.45;;;23.20;68.10;;;;;;6361892;27;20047;-54
2023/08/13 06:01:13;;;;;;;0.38;0.38;;;23.20;68.10;;;;;;6359054;27;20038;-52
2023/08/13 06:04:17;;;;;;;0.60;0.30;;;23.50;68.50;;;;;;6357446;27;20059;-52
2023/08/13 06:07:21;;;;;;;0.40;0.30;;;23.20;68.80;;;;;;6361597;27;20439;-50
2023/08/13 06:10:22;;;;;;;0.40;0.30;;;23.50;68.50;;;;;;6368285;27;20042;-50
2023/08/13 06:13:25;;;;;;;0.40;0.35;;;23.10;68.50;;;;;;6366966;27;20035;-52
2023/08/13 06:16:26;;;;;;;0.40;0.40;;;23.40;68.40;;;;;;6368846;27;20061;-53
2023/08/13 06:19:28;;;;;;;0.32;0.22;;;23.10;68.60;;;;;;6367304;27;20066;-54
2023/08/13 06:22:32;;;;;;;0.47;0.30;;;23.10;68.90;;;;;;6369667;27;20034;-52
2023/08/13 06:25:33;;;;;;;0.55;0.30;;;23.50;69.40;;;;;;6369079;27;20035;-53
2023/08/13 06:28:37;;;;;;;0.60;0.30;;;24.00;69.00;;;;;;6367590;27;20087;-54
2023/08/13 06:31:38;;;;;;;1.15;0.55;;;23.40;68.90;;;;;;6351078;27;20036;-52
2023/08/13 06:34:49;;;;;;;0.60;0.40;;;23.50;68.90;;;;;;6366452;27;20151;-53
2023/08/13 06:37:51;;;;;;;0.30;0.28;;;23.50;69.30;;;;;;6365947;27;20042;-53
2023/08/13 06:41:05;;;;;;;0.43;0.20;;;23.50;69.00;;;;;;6365983;27;20412;-53
2023/08/13 06:44:17;;;;;;;0.40;0.20;;;23.30;69.60;;;;;;6366671;27;20497;-49
2023/08/13 06:47:23;;;;;;;0.47;0.30;;;23.50;69.10;;;;;;6334118;27;20475;-53
2023/08/13 06:50:25;;;;;;;0.52;0.40;;;23.60;69.60;;;;;;6367467;27;20223;-52
2023/08/13 06:53:27;;;;;;;0.43;0.30;;;23.50;69.30;;;;;;6368965;27;20109;-54
2023/08/13 06:56:30;;;;;;;0.40;0.32;;;23.50;69.50;;;;;;6367941;27;20035;-53
2023/08/13 06:59:37;;;;;;;1.48;0.40;;;23.50;70.00;;;;;;6367096;27;20064;-54
2023/08/13 07:02:38;;;;;;;0.30;0.20;;;23.50;67.70;;;;;;6368617;27;20045;-54
2023/08/13 07:05:41;;;;;;;0.70;0.30;;;23.50;70.00;;;;;;6367784;27;20418;-52
2023/08/13 07:08:43;;;;;;;1.00;0.32;;;23.60;66.90;;;;;;6366896;27;20464;-49
2023/08/13 07:11:47;;;;;;;0.47;0.30;;;23.70;69.70;;;;;;6368203;27;20035;-53
2023/08/13 07:14:49;;;;;;;0.40;0.30;;;23.20;69.80;;;;;;6368122;27;20055;-51
2023/08/13 07:17:51;;;;;;;0.85;0.30;;;23.70;69.50;;;;;;6367490;27;20395;-53
2023/08/13 07:20:53;;;;;;;0.65;0.32;;;23.60;69.70;;;;;;6367659;27;20043;-54
2023/08/13 07:23:54;;;;;;;0.47;0.28;;;23.60;69.60;;;;;;6367792;27;20397;-51
2023/08/13 07:26:56;;;;;;;1.08;0.50;;;23.50;69.80;;;;;;6368543;27;20097;-49
2023/08/13 07:29:58;;;;;;;0.68;0.50;;;23.90;70.00;;;;;;6367507;27;20042;-54
2023/08/13 07:32:59;;;;;;;0.52;0.40;;;23.70;70.30;;;;;;6367587;27;20095;-50
2023/08/13 07:36:03;;;;;;;0.60;0.40;;;23.70;70.10;;;;;;6366044;27;20163;-54
2023/08/13 07:39:05;;;;;;;0.50;0.30;;;23.50;69.90;;;;;;6348875;27;20470;-51
2023/08/13 07:42:09;;;;;;;0.50;0.20;;;23.60;70.40;;;;;;6365647;27;20038;-52
2023/08/13 07:45:11;;;;;;;0.35;0.20;;;23.70;70.10;;;;;;6366124;27;20440;-54
2023/08/13 07:48:14;;;;;;;0.47;0.30;;;23.60;69.90;;;;;;6366850;27;20360;-51
2023/08/13 07:51:18;;;;;;;0.80;0.30;;;23.60;70.10;;;;;;6366169;27;20369;-50
2023/08/13 07:54:22;;;;;;;0.40;0.40;;;23.60;70.20;;;;;;6367006;27;20050;-54
2023/08/13 07:57:26;;;;;;;0.40;0.28;;;22.90;69.80;;;;;;6348535;27;20051;-55
2023/08/13 08:00:28;;;;;;;0.90;0.38;;;23.60;70.20;;;;;;6348873;27;20110;-54
2023/08/13 08:03:29;;;;;;;0.38;0.32;;;23.70;70.80;;;;;;6366171;27;20405;-52
2023/08/13 08:06:31;;;;;;;0.80;0.30;;;23.30;70.20;;;;;;6367511;27;20034;-52
2023/08/13 08:09:33;;;;;;;0.65;0.32;;;23.70;70.50;;;;;;6364892;27;20074;-52
2023/08/13 08:12:34;;;;;;;0.50;0.30;;;23.70;70.30;;;;;;6366414;27;20083;-50
2023/08/13 08:15:39;;;;;;;0.40;0.28;;;23.60;70.90;;;;;;6366634;27;20043;-51
2023/08/13 08:18:46;;;;;;;0.40;0.30;;;23.40;70.10;;;;;;6365712;27;20412;-52
2023/08/13 08:21:51;;;;;;;0.40;0.30;;;23.50;70.50;;;;;;6367250;27;20126;-51
2023/08/13 08:24:54;;;;;;;0.95;0.40;;;23.60;70.50;;;;;;6365716;27;20491;-51
2023/08/13 08:27:56;;;;;;;1.15;0.30;;;23.50;70.30;;;;;;6362715;27;20039;-54
2023/08/13 08:31:00;;;;;;;0.80;0.32;;;23.20;70.10;;;;;;6370415;27;20035;-53
2023/08/13 08:34:02;;;;;;;0.30;0.30;;;23.70;70.70;;;;;;6370085;27;20420;-52
2023/08/13 08:37:04;;;;;;;1.20;0.30;;;23.60;70.20;;;;;;6368268;27;20042;-53
2023/08/13 08:40:07;;;;;;;0.47;0.30;;;23.60;70.70;;;;;;6370294;27;20030;-52
2023/08/13 08:43:12;;;;;;;0.52;0.30;;;23.80;70.10;;;;;;6369763;27;20108;-53
2023/08/13 08:46:15;;;;;;;1.85;0.40;;;23.40;69.90;;;;;;6371446;27;20482;-52
2023/08/13 08:49:18;;;;;;;0.90;0.40;;;23.70;69.90;;;;;;6368709;27;20046;-52
2023/08/13 08:52:28;;;;;;;1.02;0.45;;;23.60;70.00;;;;;;6369409;27;20038;-50
2023/08/13 08:55:31;;;;;;;;;;;23.80;69.80;;;;;;6370745;27;20516;-49
2023/08/13 08:58:35;;;;;;;1.00;0.45;;;23.90;70.10;;;;;;6369890;27;20409;-52
2023/08/13 09:01:40;;;;;;;0.77;0.40;;;23.70;69.60;;;;;;6369313;27;20487;-53
2023/08/13 09:04:41;;;;;;;0.80;0.40;;;23.70;69.40;;;;;;6369164;27;20039;-52
2023/08/13 09:07:43;;;;;;;0.50;0.40;;;23.60;69.20;;;;;;6368124;27;20035;-54
2023/08/13 09:10:45;;;;;;;1.20;0.50;;;23.40;69.40;;;;;;6370472;27;20565;-54
2023/08/13 09:13:48;;;;;;;0.40;0.40;;;23.40;68.80;;;;;;6369758;27;20516;-53
2023/08/13 09:16:51;;;;;;;0.88;0.40;;;23.80;69.30;;;;;;6368896;27;20506;-54
2023/08/13 09:19:56;;;;;;;1.13;0.50;;;23.80;68.70;;;;;;6369507;27;20229;-53
2023/08/13 09:22:59;;;;;;;1.45;0.43;;;23.70;68.90;;;;;;6367903;27;20075;-54
2023/08/13 09:26:01;;;;;;;0.57;0.30;;;25.40;69.10;;;;;;6351540;27;20030;-52
2023/08/13 09:29:07;;;;;;;0.80;0.40;;;23.80;68.40;;;;;;6369597;27;20038;-51
2023/08/13 09:32:09;;;;;;;0.93;0.30;;;23.80;68.00;;;;;;6351590;27;20042;-52
2023/08/13 09:35:10;;;;;;;0.40;0.30;;;23.40;67.80;;;;;;6370042;27;20035;-54
2023/08/13 09:38:12;;;;;;;1.08;0.60;;;23.80;67.80;;;;;;6368545;27;20051;-53
2023/08/13 09:41:17;;;;;;;0.93;0.40;;;23.50;67.90;;;;;;6369429;27;20262;-53
2023/08/13 09:44:26;;;;;;;0.60;0.32;;;23.90;67.30;;;;;;6369491;27;20122;-53
2023/08/13 09:47:28;;;;;;;0.82;0.40;;;23.90;67.10;;;;;;6369001;27;20042;-52
2023/08/13 09:50:34;;;;;;;1.30;0.40;;;23.90;66.90;;;;;;6350205;27;20038;-53
2023/08/13 09:53:37;;;;;;;0.57;0.35;;;23.50;66.50;;;;;;6367358;27;20084;-52
2023/08/13 09:56:42;;;;;;;1.02;0.30;;;23.80;66.70;;;;;;6367219;27;20091;-53
2023/08/13 09:59:45;;;;;;;0.50;0.40;;;23.90;66.50;;;;;;6367446;27;20504;-53
2023/08/13 10:02:48;;;;;;;0.93;0.40;;;23.50;66.70;;;;;;6368078;27;20039;-52
2023/08/13 10:05:50;;;;;;;0.50;0.20;;;23.60;66.70;;;;;;6368206;27;20465;-53
2023/08/13 10:08:52;;;;;;;0.20;0.20;;;23.90;66.70;;;;;;6366832;27;20050;-51
2023/08/13 10:11:54;;;;;;;0.90;0.40;;;23.90;66.40;;;;;;6366709;27;20038;-55
2023/08/13 10:14:56;;;;;;;0.77;0.32;;;23.90;66.30;;;;;;6367429;27;20444;-51
2023/08/13 10:17:59;;;;;;;0.35;0.30;;;24.00;65.90;;;;;;6368240;27;20521;-51
2023/08/13 10:21:01;;;;;;;0.65;0.30;;;24.00;65.50;;;;;;6348715;27;20027;-49
2023/08/13 10:24:05;;;;;;;0.30;0.25;;;23.50;65.20;;;;;;6368357;27;20160;-50
2023/08/13 10:27:11;;;;;;;0.38;0.30;;;23.60;65.60;;;;;;6333947;27;20537;-51
2023/08/13 10:30:15;;;;;;;0.57;0.38;;;22.50;64.50;;;;;;6367254;27;20038;-52
2023/08/13 10:33:19;;;;;;;0.43;0.20;;;24.00;65.20;;;;;;6365910;27;20467;-53
2023/08/13 10:36:23;;;;;;;0.22;0.22;;;23.70;64.90;;;;;;6368766;27;20058;-53
2023/08/13 10:39:31;;;;;;;0.30;0.30;;;23.70;63.10;;;;;;6367346;27;20039;-53
2023/08/13 10:42:48;;;;;;;1.23;0.30;;;24.00;65.10;;;;;;6348615;27;20551;-52
2023/08/13 10:45:49;;;;;;;0.57;0.25;;;24.00;64.40;;;;;;6364785;27;20124;-53
2023/08/13 10:48:52;;;;;;;0.22;0.17;;;24.00;64.50;;;;;;6364454;27;20034;-52
2023/08/13 10:51:59;;;;;;;0.50;0.32;;;24.10;64.30;;;;;;6364357;27;20043;-54
2023/08/13 10:55:01;;;;;;;0.40;0.20;;;23.70;63.90;;;;;;6366321;27;20035;-53
2023/08/13 10:58:04;;;;;;;0.88;0.22;;;24.00;64.30;;;;;;6365783;27;20034;-54
2023/08/13 11:01:16;;;;;;;0.25;0.13;;;24.80;64.50;;;;;;6364937;27;20043;-54
2023/08/13 11:04:18;;;;;;;0.70;0.22;;;24.10;63.40;;;;;;6348689;27;20042;-54
2023/08/13 11:07:20;;;;;;;0.43;0.30;;;24.00;63.40;;;;;;6366495;27;20035;-53
2023/08/13 11:10:22;;;;;;;0.73;0.30;;;24.20;63.20;;;;;;6363949;27;20040;-54
2023/08/13 11:13:23;;;;;;;0.30;0.20;;;23.90;63.00;;;;;;6365595;27;20082;-53
2023/08/13 11:16:28;;;;;;;0.70;0.20;;;24.20;62.80;;;;;;6365797;27;20039;-54
2023/08/13 11:19:30;;;;;;;0.40;0.20;;;24.10;62.60;;;;;;6347547;27;20039;-54
2023/08/13 11:22:32;;;;;;;0.47;0.20;;;24.20;62.60;;;;;;6366850;27;20034;-52
2023/08/13 11:25:34;;;;;;;0.55;0.40;;;24.10;62.30;;;;;;6366132;27;20034;-54
2023/08/13 11:28:36;;;;;;;0.50;0.22;;;24.10;62.60;;;;;;6363880;27;20039;-54
2023/08/13 11:31:42;;;;;;;0.90;0.40;;;24.20;62.20;;;;;;6355541;27;20039;-53
2023/08/13 11:34:44;;;;;;;0.30;0.22;;;24.30;62.50;;;;;;6365841;27;20027;-52
2023/08/13 11:37:46;;;;;;;0.70;0.30;;;24.20;62.20;;;;;;6364849;27;20500;-53
2023/08/13 11:40:49;;;;;;;0.82;0.45;;;24.20;61.40;;;;;;6365365;27;20442;-52
2023/08/13 11:43:53;;;;;;;1.48;0.20;;;24.20;61.40;;;;;;6362661;27;20529;-55
2023/08/13 11:46:57;;;;;;;0.30;0.30;;;24.30;61.20;;;;;;6356892;27;20080;-52
2023/08/13 11:50:04;;;;;;;0.95;0.30;;;24.40;61.10;;;;;;6365036;27;20045;-52
2023/08/13 11:53:12;;;;;;;0.20;0.20;;;24.40;58.70;;;;;;6365404;27;20034;-51
2023/08/13 11:56:16;;;;;;;0.30;0.20;;;24.00;60.60;;;;;;6366166;27;20110;-54
2023/08/13 11:59:29;;;;;;;0.77;0.30;;;24.30;60.60;;;;;;6365426;27;20109;-53
2023/08/13 12:02:37;;;;;;;0.88;0.20;;;24.30;60.90;;;;;;6326603;27;20039;-54
2023/08/13 12:05:42;;;;;;;1.20;0.28;;;24.40;60.40;;;;;;6369423;27;20125;-55
2023/08/13 12:08:47;;;;;;;0.52;0.20;;;24.50;60.40;;;;;;6351208;27;20047;-51
2023/08/13 12:11:49;;;;;;;0.73;0.30;;;24.40;60.30;;;;;;6368409;27;20046;-54
2023/08/13 12:14:50;;;;;;;0.20;0.20;;;24.40;60.20;;;;;;6368938;27;20459;-49
2023/08/13 12:17:56;;;;;;;0.57;0.20;;;24.10;59.90;;;;;;6368978;27;20038;-52
2023/08/13 12:20:59;;;;;;;0.30;0.20;;;24.40;59.80;;;;;;6369284;27;20038;-54
2023/08/13 12:24:01;;;;;;;0.52;0.20;;;24.50;59.90;;;;;;6367370;27;20050;-54
2023/08/13 12:27:12;;;;;;;0.45;0.32;;;24.50;59.70;;;;;;6366321;27;20043;-55
2023/08/13 12:30:14;;;;;;;0.35;0.20;;;24.20;58.50;;;;;;6368691;27;20031;-53
2023/08/13 12:33:15;;;;;;;0.43;0.20;;;24.70;60.00;;;;;;6367098;27;20299;-53
2023/08/13 12:36:17;;;;;;;0.30;0.20;;;24.40;59.90;;;;;;6366651;27;20039;-53
2023/08/13 12:39:19;;;;;;;0.63;0.28;;;24.60;59.60;;;;;;6368376;27;20046;-51
2023/08/13 12:42:21;;;;;;;0.30;0.20;;;24.50;59.50;;;;;;6368330;27;20405;-53
2023/08/13 12:45:23;;;;;;;0.70;0.20;;;24.20;59.20;;;;;;6368173;27;20064;-53
2023/08/13 12:48:24;;;;;;;0.43;0.35;;;24.30;59.10;;;;;;6367803;27;20250;-53
2023/08/13 12:51:26;;;;;;;0.55;0.20;;;24.60;59.40;;;;;;6368667;27;20266;-54
2023/08/13 12:54:28;;;;;;;0.47;0.20;;;24.70;59.50;;;;;;6371205;27;20321;-55
2023/08/13 12:57:32;;;;;;;0.30;0.15;;;24.70;59.20;;;;;;6351536;27;20038;-55
2023/08/13 13:00:34;;;;;;;0.93;0.22;;;24.70;59.00;;;;;;6372110;27;20027;-54
2023/08/13 13:03:35;;;;;;;0.45;0.30;;;24.70;59.10;;;;;;6370623;27;20034;-54
2023/08/13 13:06:40;;;;;;;0.57;0.20;;;24.70;59.00;;;;;;6370160;27;20035;-53
2023/08/13 13:09:41;;;;;;;0.60;0.20;;;24.70;59.40;;;;;;6349232;27;20354;-54
2023/08/13 13:12:44;;;;;;;0.30;0.20;;;24.80;58.90;;;;;;6370913;27;20035;-52
2023/08/13 13:15:48;;;;;;;0.98;0.30;;;24.90;58.90;;;;;;6369895;27;20171;-51
2023/08/13 13:18:50;;;;;;;0.25;0.20;;;24.70;58.70;;;;;;6371147;27;20050;-53
2023/08/13 13:21:54;;;;;;;0.75;0.20;;;24.80;58.70;;;;;;6370331;27;20031;-50
2023/08/13 13:24:56;;;;;;;0.30;0.20;;;24.80;58.40;;;;;;6369826;27;20038;-54
2023/08/13 13:28:00;;;;;;;1.60;0.28;;;24.80;58.80;;;;;;6368827;27;20035;-52
2023/08/13 13:31:04;;;;;;;0.50;0.20;;;24.40;57.80;;;;;;6368578;27;20072;-52
2023/08/13 13:34:05;;;;;;;0.20;0.20;;;24.70;57.90;;;;;;6369882;27;20244;-54
2023/08/13 13:37:07;;;;;;;0.52;0.30;;;24.90;57.80;;;;;;6369973;27;20409;-52
2023/08/13 13:40:11;;;;;;;0.45;0.30;;;24.80;57.90;;;;;;6368728;27;20038;-53
2023/08/13 13:43:15;;;;;;;0.50;0.20;;;24.80;58.10;;;;;;6369053;27;20039;-54
2023/08/13 13:46:17;;;;;;;0.35;0.20;;;24.50;57.60;;;;;;6369454;27;20035;-54
2023/08/13 13:49:19;;;;;;;0.20;0.10;;;25.00;57.80;;;;;;6368094;27;20258;-53
2023/08/13 13:52:21;;;;;;;0.38;0.25;;;24.70;58.10;;;;;;6367357;27;20031;-54
2023/08/13 13:55:23;;;;;;;0.40;0.30;;;24.90;58.00;;;;;;6367653;27;20045;-53
2023/08/13 13:58:25;;;;;;;0.30;0.20;;;24.80;57.70;;;;;;6365970;27;20031;-51
2023/08/13 14:01:26;;;;;;;0.47;0.20;;;24.70;57.40;;;;;;6367999;27;20027;-52
2023/08/13 14:04:31;;;;;;;0.25;0.13;;;24.80;58.00;;;;;;6368777;27;20042;-55
2023/08/13 14:07:36;;;;;;;0.40;0.20;;;24.70;57.30;;;;;;6369018;27;20334;-53
2023/08/13 14:10:37;;;;;;;0.20;0.20;;;24.80;57.50;;;;;;6370443;27;20034;-54
2023/08/13 14:13:42;;;;;;;0.47;0.20;;;24.00;57.20;;;;;;6368699;27;20031;-55
2023/08/13 14:16:43;;;;;;;0.55;0.22;;;24.70;57.10;;;;;;6368178;27;20047;-53
2023/08/13 14:19:46;;;;;;;0.63;0.30;;;24.80;57.30;;;;;;6369992;27;20039;-55
2023/08/13 14:22:48;;;;;;;0.20;0.20;;;24.40;57.00;;;;;;6350317;27;20279;-54
2023/08/13 14:25:50;;;;;;;0.55;0.30;;;24.80;57.40;;;;;;6366411;27;20132;-54
2023/08/13 14:28:52;;;;;;;0.57;0.10;;;24.40;56.90;;;;;;6368797;27;20033;-55
2023/08/13 14:31:53;;;;;;;0.40;0.30;;;24.80;57.10;;;;;;6368588;27;20236;-53
2023/08/13 14:34:55;;;;;;;0.57;0.20;;;24.80;57.20;;;;;;6368754;27;20031;-54
2023/08/13 14:37:57;;;;;;;0.20;0.20;;;24.90;57.00;;;;;;6366120;27;20049;-53
2023/08/13 14:40:59;;;;;;;0.82;0.30;;;25.00;56.90;;;;;;6366548;27;20043;-56
2023/08/13 14:44:03;;;;;;;0.70;0.32;;;24.90;56.90;;;;;;6366580;27;20038;-55
2023/08/13 14:47:04;;;;;;;0.40;0.20;;;24.80;56.70;;;;;;6349932;27;20412;-54
2023/08/13 14:50:13;;;;;;;0.47;0.17;;;24.90;56.60;;;;;;6368657;27;20417;-55
2023/08/13 14:53:17;;;;;;;0.40;0.30;;;25.00;56.50;;;;;;6366335;27;20035;-54
2023/08/13 14:56:19;;;;;;;0.40;0.30;;;24.90;56.40;;;;;;6368217;27;20042;-53
2023/08/13 14:59:20;;;;;;;0.75;0.20;;;24.70;56.30;;;;;;6365267;27;20039;-54
2023/08/13 15:02:23;;;;;;;1.08;0.30;;;24.90;56.10;;;;;;6365570;27;20035;-54
2023/08/13 15:05:28;;;;;;;0.52;0.25;;;25.10;56.30;;;;;;6367313;27;20063;-54
2023/08/13 15:08:31;;;;;;;0.40;0.30;;;25.00;56.00;;;;;;6366844;27;20512;-53
2023/08/13 15:11:32;;;;;;;0.95;0.30;;;24.50;55.30;;;;;;6345625;27;20042;-54
2023/08/13 15:14:33;;;;;;;0.38;0.20;;;25.10;56.30;;;;;;6366303;27;20774;-54
2023/08/13 15:17:35;;;;;;;0.77;0.28;;;25.10;56.00;;;;;;6366929;27;20078;-55
2023/08/13 15:20:37;;;;;;;0.38;0.20;;;24.90;55.60;;;;;;6368300;27;20030;-50
2023/08/13 15:23:39;;;;;;;0.30;0.20;;;25.10;55.90;;;;;;6362676;27;20322;-53
2023/08/13 15:26:42;;;;;;;0.82;0.20;;;25.10;55.70;;;;;;6367742;27;20342;-54
2023/08/13 15:29:45;;;;;;;0.35;0.30;;;25.10;55.70;;;;;;6368676;27;20105;-53
2023/08/13 15:32:47;;;;;;;0.20;0.20;;;25.10;55.60;;;;;;6365756;27;20035;-55
2023/08/13 15:35:51;;;;;;;0.28;0.25;;;24.60;55.40;;;;;;6366058;27;20544;-54
2023/08/13 15:38:53;;;;;;;0.40;0.28;;;24.70;55.20;;;;;;6348241;27;20238;-54
2023/08/13 15:41:55;;;;;;;0.28;0.20;;;24.90;55.30;;;;;;6368295;27;20038;-55
2023/08/13 15:44:57;;;;;;;0.20;0.10;;;24.60;55.20;;;;;;6367181;27;20031;-55
2023/08/13 15:47:58;;;;;;;0.60;0.20;;;24.80;55.20;;;;;;6368628;27;20042;-53
2023/08/13 15:51:02;;;;;;;0.20;0.20;;;24.60;54.90;;;;;;6366435;27;20413;-53
2023/08/13 15:54:04;;;;;;;0.50;0.20;;;25.10;55.00;;;;;;6367022;27;20597;-53